sensor_id;sensor_type;location;lat;lon;timestamp;P1;durP1;ratioP1;P2;durP2;ratioP2
75073;SDS011;63652;51.526;5.080;2023-03-17T00:01:47;4.65;;;1.98;;
75073;SDS011;63652;51.526;5.080;2023-03-17T00:04:15;4.22;;;2.42;;
75073;SDS011;63652;51.526;5.080;2023-03-17T00:06:41;5.25;;;2.30;;
75073;SDS011;63652;51.526;5.080;2023-03-17T00:09:11;4.28;;;2.17;;
75073;SDS011;63652;51.526;5.080;2023-03-17T00:11:38;5.07;;;2.13;;
75073;SDS011;63652;51.526;5.080;2023-03-17T00:14:04;6.03;;;2.15;;
75073;SDS011;63652;51.526;5.080;2023-03-17T00:16:29;5.68;;;2.58;;
75073;SDS011;63652;51.526;5.080;2023-03-17T00:18:56;5.20;;;2.60;;
75073;SDS011;63652;51.526;5.080;2023-03-17T00:21:26;4.13;;;1.80;;
75073;SDS011;63652;51.526;5.080;2023-03-17T00:23:54;4.43;;;1.90;;
75073;SDS011;63652;51.526;5.080;2023-03-17T00:26:21;4.60;;;2.30;;
75073;SDS011;63652;51.526;5.080;2023-03-17T00:28:47;3.83;;;1.50;;
75073;SDS011;63652;51.526;5.080;2023-03-17T00:31:14;4.32;;;2.15;;
75073;SDS011;63652;51.526;5.080;2023-03-17T00:33:40;5.75;;;2.30;;
75073;SDS011;63652;51.526;5.080;2023-03-17T00:36:09;6.88;;;2.63;;
75073;SDS011;63652;51.526;5.080;2023-03-17T00:38:43;4.32;;;1.98;;
75073;SDS011;63652;51.526;5.080;2023-03-17T00:41:10;5.90;;;2.15;;
75073;SDS011;63652;51.526;5.080;2023-03-17T00:43:36;4.85;;;2.17;;
75073;SDS011;63652;51.526;5.080;2023-03-17T00:46:04;3.90;;;2.08;;
75073;SDS011;63652;51.526;5.080;2023-03-17T00:48:34;5.55;;;2.15;;
75073;SDS011;63652;51.526;5.080;2023-03-17T00:51:01;8.75;;;3.22;;
75073;SDS011;63652;51.526;5.080;2023-03-17T00:53:26;5.80;;;2.70;;
75073;SDS011;63652;51.526;5.080;2023-03-17T00:55:51;3.97;;;2.00;;
75073;SDS011;63652;51.526;5.080;2023-03-17T00:58:27;4.55;;;2.60;;
75073;SDS011;63652;51.526;5.080;2023-03-17T01:00:55;4.95;;;2.33;;
75073;SDS011;63652;51.526;5.080;2023-03-17T01:03:20;4.90;;;2.10;;
75073;SDS011;63652;51.526;5.080;2023-03-17T01:05:47;7.35;;;2.20;;
75073;SDS011;63652;51.526;5.080;2023-03-17T01:08:13;5.40;;;2.10;;
75073;SDS011;63652;51.526;5.080;2023-03-17T01:10:41;3.83;;;2.05;;
75073;SDS011;63652;51.526;5.080;2023-03-17T01:13:10;5.85;;;2.33;;
75073;SDS011;63652;51.526;5.080;2023-03-17T01:15:36;7.20;;;2.50;;
75073;SDS011;63652;51.526;5.080;2023-03-17T01:18:04;5.03;;;2.50;;
75073;SDS011;63652;51.526;5.080;2023-03-17T01:20:30;3.72;;;2.08;;
75073;SDS011;63652;51.526;5.080;2023-03-17T01:22:59;5.25;;;2.30;;
75073;SDS011;63652;51.526;5.080;2023-03-17T01:25:26;4.10;;;2.50;;
75073;SDS011;63652;51.526;5.080;2023-03-17T01:27:53;6.55;;;2.45;;
75073;SDS011;63652;51.526;5.080;2023-03-17T01:32:47;4.85;;;1.80;;
75073;SDS011;63652;51.526;5.080;2023-03-17T01:35:13;3.65;;;2.30;;
75073;SDS011;63652;51.526;5.080;2023-03-17T01:37:39;3.25;;;1.88;;
75073;SDS011;63652;51.526;5.080;2023-03-17T01:40:05;4.07;;;2.30;;
75073;SDS011;63652;51.526;5.080;2023-03-17T01:42:33;5.05;;;2.60;;
75073;SDS011;63652;51.526;5.080;2023-03-17T01:45:00;5.15;;;2.40;;
75073;SDS011;63652;51.526;5.080;2023-03-17T01:47:28;7.70;;;2.80;;
75073;SDS011;63652;51.526;5.080;2023-03-17T01:49:56;5.22;;;2.35;;
75073;SDS011;63652;51.526;5.080;2023-03-17T01:52:24;4.45;;;2.25;;
75073;SDS011;63652;51.526;5.080;2023-03-17T01:57:26;5.97;;;2.20;;
75073;SDS011;63652;51.526;5.080;2023-03-17T02:00:01;4.45;;;2.30;;
75073;SDS011;63652;51.526;5.080;2023-03-17T02:04:59;6.63;;;2.47;;
75073;SDS011;63652;51.526;5.080;2023-03-17T02:07:25;4.15;;;2.35;;
75073;SDS011;63652;51.526;5.080;2023-03-17T02:09:52;4.95;;;2.40;;
75073;SDS011;63652;51.526;5.080;2023-03-17T02:12:19;5.97;;;2.50;;
75073;SDS011;63652;51.526;5.080;2023-03-17T02:14:46;6.07;;;2.40;;
75073;SDS011;63652;51.526;5.080;2023-03-17T02:17:11;4.85;;;2.25;;
75073;SDS011;63652;51.526;5.080;2023-03-17T02:19:37;4.88;;;2.55;;
75073;SDS011;63652;51.526;5.080;2023-03-17T02:22:03;4.43;;;2.03;;
75073;SDS011;63652;51.526;5.080;2023-03-17T02:24:33;3.88;;;2.17;;
75073;SDS011;63652;51.526;5.080;2023-03-17T02:27:11;3.20;;;1.92;;
75073;SDS011;63652;51.526;5.080;2023-03-17T02:29:38;4.65;;;2.35;;
75073;SDS011;63652;51.526;5.080;2023-03-17T02:32:04;4.07;;;2.20;;
75073;SDS011;63652;51.526;5.080;2023-03-17T02:34:30;5.38;;;2.20;;
75073;SDS011;63652;51.526;5.080;2023-03-17T02:36:56;5.50;;;2.47;;
75073;SDS011;63652;51.526;5.080;2023-03-17T02:39:22;5.45;;;2.13;;
75073;SDS011;63652;51.526;5.080;2023-03-17T02:41:48;5.85;;;2.78;;
75073;SDS011;63652;51.526;5.080;2023-03-17T02:44:13;3.53;;;2.08;;
75073;SDS011;63652;51.526;5.080;2023-03-17T02:46:39;3.85;;;1.88;;
75073;SDS011;63652;51.526;5.080;2023-03-17T02:49:05;5.20;;;2.30;;
75073;SDS011;63652;51.526;5.080;2023-03-17T02:51:31;4.32;;;1.95;;
75073;SDS011;63652;51.526;5.080;2023-03-17T02:53:56;5.30;;;2.30;;
75073;SDS011;63652;51.526;5.080;2023-03-17T02:56:22;4.03;;;2.28;;
75073;SDS011;63652;51.526;5.080;2023-03-17T02:58:47;5.55;;;2.13;;
75073;SDS011;63652;51.526;5.080;2023-03-17T03:01:12;5.75;;;2.00;;
75073;SDS011;63652;51.526;5.080;2023-03-17T03:03:38;4.90;;;1.88;;
75073;SDS011;63652;51.526;5.080;2023-03-17T03:06:03;4.65;;;2.30;;
75073;SDS011;63652;51.526;5.080;2023-03-17T03:08:29;4.95;;;2.10;;
75073;SDS011;63652;51.526;5.080;2023-03-17T03:10:54;5.18;;;2.20;;
75073;SDS011;63652;51.526;5.080;2023-03-17T03:13:20;4.65;;;2.00;;
75073;SDS011;63652;51.526;5.080;2023-03-17T03:15:46;4.22;;;1.98;;
75073;SDS011;63652;51.526;5.080;2023-03-17T03:18:11;8.32;;;2.17;;
75073;SDS011;63652;51.526;5.080;2023-03-17T03:20:37;4.60;;;1.80;;
75073;SDS011;63652;51.526;5.080;2023-03-17T03:23:03;4.00;;;1.67;;
75073;SDS011;63652;51.526;5.080;2023-03-17T03:25:28;3.78;;;1.70;;
75073;SDS011;63652;51.526;5.080;2023-03-17T03:27:53;3.67;;;1.88;;
75073;SDS011;63652;51.526;5.080;2023-03-17T03:30:19;4.18;;;1.42;;
75073;SDS011;63652;51.526;5.080;2023-03-17T03:32:44;3.33;;;1.38;;
75073;SDS011;63652;51.526;5.080;2023-03-17T03:35:11;3.00;;;1.52;;
75073;SDS011;63652;51.526;5.080;2023-03-17T03:37:36;7.20;;;2.35;;
75073;SDS011;63652;51.526;5.080;2023-03-17T03:40:02;3.60;;;1.40;;
75073;SDS011;63652;51.526;5.080;2023-03-17T03:42:28;2.85;;;1.40;;
75073;SDS011;63652;51.526;5.080;2023-03-17T03:44:53;4.47;;;1.38;;
75073;SDS011;63652;51.526;5.080;2023-03-17T03:47:19;2.58;;;1.42;;
75073;SDS011;63652;51.526;5.080;2023-03-17T03:49:44;3.00;;;1.50;;
75073;SDS011;63652;51.526;5.080;2023-03-17T03:52:10;2.53;;;1.33;;
75073;SDS011;63652;51.526;5.080;2023-03-17T03:54:36;3.38;;;1.30;;
75073;SDS011;63652;51.526;5.080;2023-03-17T03:57:01;3.58;;;1.20;;
75073;SDS011;63652;51.526;5.080;2023-03-17T03:59:26;3.03;;;1.38;;
75073;SDS011;63652;51.526;5.080;2023-03-17T04:01:52;2.47;;;1.27;;
75073;SDS011;63652;51.526;5.080;2023-03-17T04:04:17;3.25;;;1.30;;
75073;SDS011;63652;51.526;5.080;2023-03-17T04:06:43;4.38;;;1.70;;
75073;SDS011;63652;51.526;5.080;2023-03-17T04:09:08;3.13;;;1.10;;
75073;SDS011;63652;51.526;5.080;2023-03-17T04:11:33;3.40;;;1.40;;
75073;SDS011;63652;51.526;5.080;2023-03-17T04:13:59;3.53;;;1.58;;
75073;SDS011;63652;51.526;5.080;2023-03-17T04:16:25;5.30;;;1.65;;
75073;SDS011;63652;51.526;5.080;2023-03-17T04:18:50;3.08;;;1.52;;
75073;SDS011;63652;51.526;5.080;2023-03-17T04:21:16;2.95;;;1.27;;
75073;SDS011;63652;51.526;5.080;2023-03-17T04:23:43;2.75;;;1.00;;
75073;SDS011;63652;51.526;5.080;2023-03-17T04:26:09;5.30;;;1.23;;
75073;SDS011;63652;51.526;5.080;2023-03-17T04:28:35;3.70;;;1.20;;
75073;SDS011;63652;51.526;5.080;2023-03-17T04:31:00;3.88;;;1.45;;
75073;SDS011;63652;51.526;5.080;2023-03-17T04:33:26;2.17;;;1.10;;
75073;SDS011;63652;51.526;5.080;2023-03-17T04:35:51;4.60;;;1.33;;
75073;SDS011;63652;51.526;5.080;2023-03-17T04:38:17;2.35;;;1.25;;
75073;SDS011;63652;51.526;5.080;2023-03-17T04:40:42;3.20;;;0.98;;
75073;SDS011;63652;51.526;5.080;2023-03-17T04:43:07;2.45;;;0.90;;
75073;SDS011;63652;51.526;5.080;2023-03-17T04:45:34;3.50;;;1.33;;
75073;SDS011;63652;51.526;5.080;2023-03-17T04:48:00;3.80;;;1.15;;
75073;SDS011;63652;51.526;5.080;2023-03-17T04:50:26;2.55;;;1.00;;
75073;SDS011;63652;51.526;5.080;2023-03-17T04:52:51;3.20;;;1.42;;
75073;SDS011;63652;51.526;5.080;2023-03-17T04:55:16;3.13;;;0.93;;
75073;SDS011;63652;51.526;5.080;2023-03-17T04:57:42;3.97;;;1.30;;
75073;SDS011;63652;51.526;5.080;2023-03-17T05:00:08;2.55;;;1.20;;
75073;SDS011;63652;51.526;5.080;2023-03-17T05:02:35;3.35;;;1.75;;
75073;SDS011;63652;51.526;5.080;2023-03-17T05:05:03;3.67;;;1.17;;
75073;SDS011;63652;51.526;5.080;2023-03-17T05:07:29;2.55;;;1.02;;
75073;SDS011;63652;51.526;5.080;2023-03-17T05:09:55;7.13;;;1.33;;
75073;SDS011;63652;51.526;5.080;2023-03-17T05:12:21;3.00;;;1.10;;
75073;SDS011;63652;51.526;5.080;2023-03-17T05:14:46;3.38;;;1.15;;
75073;SDS011;63652;51.526;5.080;2023-03-17T05:17:12;3.67;;;1.08;;
75073;SDS011;63652;51.526;5.080;2023-03-17T05:19:37;5.22;;;1.33;;
75073;SDS011;63652;51.526;5.080;2023-03-17T05:22:03;3.28;;;1.13;;
75073;SDS011;63652;51.526;5.080;2023-03-17T05:24:28;4.53;;;1.05;;
75073;SDS011;63652;51.526;5.080;2023-03-17T05:26:54;4.38;;;1.30;;
75073;SDS011;63652;51.526;5.080;2023-03-17T05:29:20;2.45;;;1.05;;
75073;SDS011;63652;51.526;5.080;2023-03-17T05:31:45;2.28;;;1.05;;
75073;SDS011;63652;51.526;5.080;2023-03-17T05:34:11;3.40;;;1.40;;
75073;SDS011;63652;51.526;5.080;2023-03-17T05:36:37;3.42;;;1.30;;
75073;SDS011;63652;51.526;5.080;2023-03-17T05:39:03;2.60;;;1.10;;
75073;SDS011;63652;51.526;5.080;2023-03-17T05:41:29;2.88;;;1.15;;
75073;SDS011;63652;51.526;5.080;2023-03-17T05:43:54;2.40;;;1.00;;
75073;SDS011;63652;51.526;5.080;2023-03-17T05:46:20;2.40;;;1.15;;
75073;SDS011;63652;51.526;5.080;2023-03-17T05:48:46;8.82;;;1.67;;
75073;SDS011;63652;51.526;5.080;2023-03-17T05:51:12;3.85;;;1.35;;
75073;SDS011;63652;51.526;5.080;2023-03-17T05:53:38;3.03;;;1.20;;
75073;SDS011;63652;51.526;5.080;2023-03-17T05:56:04;3.72;;;1.52;;
75073;SDS011;63652;51.526;5.080;2023-03-17T05:58:30;4.50;;;1.35;;
75073;SDS011;63652;51.526;5.080;2023-03-17T06:00:56;5.10;;;1.17;;
75073;SDS011;63652;51.526;5.080;2023-03-17T06:03:24;3.78;;;1.20;;
75073;SDS011;63652;51.526;5.080;2023-03-17T06:05:49;1.95;;;0.93;;
75073;SDS011;63652;51.526;5.080;2023-03-17T06:08:15;3.83;;;1.50;;
75073;SDS011;63652;51.526;5.080;2023-03-17T06:10:41;6.22;;;1.33;;
75073;SDS011;63652;51.526;5.080;2023-03-17T06:13:07;4.28;;;1.30;;
75073;SDS011;63652;51.526;5.080;2023-03-17T06:15:32;2.80;;;1.48;;
75073;SDS011;63652;51.526;5.080;2023-03-17T06:18:00;3.63;;;1.38;;
75073;SDS011;63652;51.526;5.080;2023-03-17T06:20:25;4.82;;;1.42;;
75073;SDS011;63652;51.526;5.080;2023-03-17T06:22:51;4.20;;;1.50;;
75073;SDS011;63652;51.526;5.080;2023-03-17T06:25:16;3.42;;;1.42;;
75073;SDS011;63652;51.526;5.080;2023-03-17T06:27:42;3.00;;;1.35;;
75073;SDS011;63652;51.526;5.080;2023-03-17T06:30:07;2.83;;;1.00;;
75073;SDS011;63652;51.526;5.080;2023-03-17T06:32:34;2.45;;;1.23;;
75073;SDS011;63652;51.526;5.080;2023-03-17T06:35:00;2.10;;;1.08;;
75073;SDS011;63652;51.526;5.080;2023-03-17T06:37:26;4.60;;;1.50;;
75073;SDS011;63652;51.526;5.080;2023-03-17T06:39:52;3.03;;;1.13;;
75073;SDS011;63652;51.526;5.080;2023-03-17T06:42:17;6.78;;;2.78;;
75073;SDS011;63652;51.526;5.080;2023-03-17T06:44:43;6.85;;;4.38;;
75073;SDS011;63652;51.526;5.080;2023-03-17T06:47:09;5.47;;;3.42;;
75073;SDS011;63652;51.526;5.080;2023-03-17T06:49:34;5.90;;;2.97;;
75073;SDS011;63652;51.526;5.080;2023-03-17T06:52:00;4.35;;;2.40;;
75073;SDS011;63652;51.526;5.080;2023-03-17T06:54:25;4.07;;;2.08;;
75073;SDS011;63652;51.526;5.080;2023-03-17T06:56:51;3.15;;;1.75;;
75073;SDS011;63652;51.526;5.080;2023-03-17T06:59:18;3.15;;;1.80;;
75073;SDS011;63652;51.526;5.080;2023-03-17T07:01:43;2.97;;;1.60;;
75073;SDS011;63652;51.526;5.080;2023-03-17T07:04:10;3.67;;;1.33;;
75073;SDS011;63652;51.526;5.080;2023-03-17T07:06:35;3.42;;;1.52;;
75073;SDS011;63652;51.526;5.080;2023-03-17T07:09:01;2.38;;;1.17;;
75073;SDS011;63652;51.526;5.080;2023-03-17T07:11:27;2.88;;;1.92;;
75073;SDS011;63652;51.526;5.080;2023-03-17T07:13:54;2.53;;;1.50;;
75073;SDS011;63652;51.526;5.080;2023-03-17T07:16:20;2.55;;;1.48;;
75073;SDS011;63652;51.526;5.080;2023-03-17T07:18:46;4.70;;;1.52;;
75073;SDS011;63652;51.526;5.080;2023-03-17T07:21:12;4.13;;;1.10;;
75073;SDS011;63652;51.526;5.080;2023-03-17T07:23:39;3.05;;;1.38;;
75073;SDS011;63652;51.526;5.080;2023-03-17T07:26:05;4.55;;;1.70;;
75073;SDS011;63652;51.526;5.080;2023-03-17T07:28:30;3.65;;;1.30;;
75073;SDS011;63652;51.526;5.080;2023-03-17T07:30:56;3.20;;;1.25;;
75073;SDS011;63652;51.526;5.080;2023-03-17T07:33:22;4.05;;;1.30;;
75073;SDS011;63652;51.526;5.080;2023-03-17T07:35:48;3.78;;;1.60;;
75073;SDS011;63652;51.526;5.080;2023-03-17T07:38:14;3.25;;;0.90;;
75073;SDS011;63652;51.526;5.080;2023-03-17T07:40:41;2.95;;;1.27;;
75073;SDS011;63652;51.526;5.080;2023-03-17T07:43:07;3.58;;;1.25;;
75073;SDS011;63652;51.526;5.080;2023-03-17T07:45:34;3.45;;;1.40;;
75073;SDS011;63652;51.526;5.080;2023-03-17T07:48:00;2.38;;;1.00;;
75073;SDS011;63652;51.526;5.080;2023-03-17T07:50:29;4.40;;;1.30;;
75073;SDS011;63652;51.526;5.080;2023-03-17T07:52:56;3.95;;;1.35;;
75073;SDS011;63652;51.526;5.080;2023-03-17T07:55:21;3.67;;;1.60;;
75073;SDS011;63652;51.526;5.080;2023-03-17T07:57:47;6.10;;;1.33;;
75073;SDS011;63652;51.526;5.080;2023-03-17T08:00:12;2.83;;;1.40;;
75073;SDS011;63652;51.526;5.080;2023-03-17T08:02:38;4.30;;;1.55;;
75073;SDS011;63652;51.526;5.080;2023-03-17T08:05:05;4.45;;;1.40;;
75073;SDS011;63652;51.526;5.080;2023-03-17T08:07:31;3.63;;;1.52;;
75073;SDS011;63652;51.526;5.080;2023-03-17T08:09:57;4.32;;;1.85;;
75073;SDS011;63652;51.526;5.080;2023-03-17T08:12:23;3.88;;;1.20;;
75073;SDS011;63652;51.526;5.080;2023-03-17T08:14:48;4.28;;;1.70;;
75073;SDS011;63652;51.526;5.080;2023-03-17T08:17:14;3.58;;;1.50;;
75073;SDS011;63652;51.526;5.080;2023-03-17T08:19:40;4.90;;;1.67;;
75073;SDS011;63652;51.526;5.080;2023-03-17T08:22:05;3.28;;;1.23;;
75073;SDS011;63652;51.526;5.080;2023-03-17T08:24:31;3.70;;;1.33;;
75073;SDS011;63652;51.526;5.080;2023-03-17T08:26:56;4.15;;;1.75;;
75073;SDS011;63652;51.526;5.080;2023-03-17T08:29:22;4.15;;;2.10;;
75073;SDS011;63652;51.526;5.080;2023-03-17T08:31:48;4.13;;;1.60;;
75073;SDS011;63652;51.526;5.080;2023-03-17T08:34:13;4.43;;;1.63;;
75073;SDS011;63652;51.526;5.080;2023-03-17T08:36:40;3.42;;;1.80;;
75073;SDS011;63652;51.526;5.080;2023-03-17T08:39:05;5.07;;;1.50;;
75073;SDS011;63652;51.526;5.080;2023-03-17T08:41:30;4.38;;;1.50;;
75073;SDS011;63652;51.526;5.080;2023-03-17T08:43:56;3.42;;;1.40;;
75073;SDS011;63652;51.526;5.080;2023-03-17T08:46:23;4.10;;;1.75;;
75073;SDS011;63652;51.526;5.080;2023-03-17T08:48:51;4.45;;;1.40;;
75073;SDS011;63652;51.526;5.080;2023-03-17T08:51:19;4.13;;;1.40;;
75073;SDS011;63652;51.526;5.080;2023-03-17T08:53:45;2.97;;;1.50;;
75073;SDS011;63652;51.526;5.080;2023-03-17T08:56:11;8.02;;;1.90;;
75073;SDS011;63652;51.526;5.080;2023-03-17T08:58:36;2.95;;;1.60;;
75073;SDS011;63652;51.526;5.080;2023-03-17T09:01:04;3.78;;;1.60;;
75073;SDS011;63652;51.526;5.080;2023-03-17T09:03:30;3.88;;;1.92;;
75073;SDS011;63652;51.526;5.080;2023-03-17T09:05:56;4.35;;;1.75;;
75073;SDS011;63652;51.526;5.080;2023-03-17T09:08:22;5.05;;;2.00;;
75073;SDS011;63652;51.526;5.080;2023-03-17T09:10:48;3.95;;;1.67;;
75073;SDS011;63652;51.526;5.080;2023-03-17T09:13:14;2.83;;;1.65;;
75073;SDS011;63652;51.526;5.080;2023-03-17T09:15:40;3.85;;;1.40;;
75073;SDS011;63652;51.526;5.080;2023-03-17T09:18:06;2.85;;;1.52;;
75073;SDS011;63652;51.526;5.080;2023-03-17T09:20:32;5.43;;;1.60;;
75073;SDS011;63652;51.526;5.080;2023-03-17T09:22:58;4.30;;;1.95;;
75073;SDS011;63652;51.526;5.080;2023-03-17T09:25:23;6.30;;;1.73;;
75073;SDS011;63652;51.526;5.080;2023-03-17T09:27:49;3.72;;;1.63;;
75073;SDS011;63652;51.526;5.080;2023-03-17T09:30:15;4.28;;;1.83;;
75073;SDS011;63652;51.526;5.080;2023-03-17T09:32:41;4.72;;;1.55;;
75073;SDS011;63652;51.526;5.080;2023-03-17T09:35:08;4.75;;;1.50;;
75073;SDS011;63652;51.526;5.080;2023-03-17T09:37:35;3.88;;;1.80;;
75073;SDS011;63652;51.526;5.080;2023-03-17T09:40:00;3.03;;;1.48;;
75073;SDS011;63652;51.526;5.080;2023-03-17T09:42:44;6.30;;;2.22;;
75073;SDS011;63652;51.526;5.080;2023-03-17T09:45:27;3.58;;;1.70;;
75073;SDS011;63652;51.526;5.080;2023-03-17T09:48:01;3.60;;;1.65;;
75073;SDS011;63652;51.526;5.080;2023-03-17T09:53:03;6.75;;;1.80;;
75073;SDS011;63652;51.526;5.080;2023-03-17T09:55:30;5.97;;;2.25;;
75073;SDS011;63652;51.526;5.080;2023-03-17T09:57:56;5.82;;;2.03;;
75073;SDS011;63652;51.526;5.080;2023-03-17T10:00:23;4.43;;;2.00;;
75073;SDS011;63652;51.526;5.080;2023-03-17T10:02:54;7.15;;;2.10;;
75073;SDS011;63652;51.526;5.080;2023-03-17T10:10:52;5.15;;;1.85;;
75073;SDS011;63652;51.526;5.080;2023-03-17T10:21:52;9.95;;;2.10;;
75073;SDS011;63652;51.526;5.080;2023-03-17T10:24:22;5.03;;;1.90;;
75073;SDS011;63652;51.526;5.080;2023-03-17T10:26:49;5.05;;;2.05;;
75073;SDS011;63652;51.526;5.080;2023-03-17T10:29:16;4.07;;;2.00;;
75073;SDS011;63652;51.526;5.080;2023-03-17T10:31:45;3.65;;;1.83;;
75073;SDS011;63652;51.526;5.080;2023-03-17T10:36:55;4.05;;;2.13;;
75073;SDS011;63652;51.526;5.080;2023-03-17T10:39:24;4.40;;;1.80;;
75073;SDS011;63652;51.526;5.080;2023-03-17T10:41:55;6.65;;;2.40;;
75073;SDS011;63652;51.526;5.080;2023-03-17T10:46:59;4.00;;;1.80;;
75073;SDS011;63652;51.526;5.080;2023-03-17T10:49:25;6.70;;;1.95;;
75073;SDS011;63652;51.526;5.080;2023-03-17T10:51:52;6.32;;;2.00;;
75073;SDS011;63652;51.526;5.080;2023-03-17T10:54:18;11.23;;;2.40;;
75073;SDS011;63652;51.526;5.080;2023-03-17T10:56:48;5.80;;;2.17;;
75073;SDS011;63652;51.526;5.080;2023-03-17T10:59:19;7.38;;;2.03;;
75073;SDS011;63652;51.526;5.080;2023-03-17T11:01:50;7.20;;;2.08;;
75073;SDS011;63652;51.526;5.080;2023-03-17T11:04:28;3.60;;;1.70;;
75073;SDS011;63652;51.526;5.080;2023-03-17T11:07:35;4.68;;;1.85;;
75073;SDS011;63652;51.526;5.080;2023-03-17T11:10:04;6.07;;;2.10;;
75073;SDS011;63652;51.526;5.080;2023-03-17T11:12:40;4.57;;;2.10;;
75073;SDS011;63652;51.526;5.080;2023-03-17T11:15:09;4.32;;;2.05;;
75073;SDS011;63652;51.526;5.080;2023-03-17T11:17:57;5.55;;;2.15;;
75073;SDS011;63652;51.526;5.080;2023-03-17T11:20:33;6.18;;;2.20;;
75073;SDS011;63652;51.526;5.080;2023-03-17T11:23:16;5.93;;;3.05;;
75073;SDS011;63652;51.526;5.080;2023-03-17T11:25:46;4.78;;;1.85;;
75073;SDS011;63652;51.526;5.080;2023-03-17T11:28:16;3.72;;;1.98;;
75073;SDS011;63652;51.526;5.080;2023-03-17T11:33:31;6.70;;;2.28;;
75073;SDS011;63652;51.526;5.080;2023-03-17T11:36:03;9.55;;;2.35;;
75073;SDS011;63652;51.526;5.080;2023-03-17T11:39:18;5.93;;;2.17;;
75073;SDS011;63652;51.526;5.080;2023-03-17T11:47:50;5.95;;;2.05;;
75073;SDS011;63652;51.526;5.080;2023-03-17T11:50:28;4.78;;;2.10;;
75073;SDS011;63652;51.526;5.080;2023-03-17T11:53:41;5.65;;;2.10;;
75073;SDS011;63652;51.526;5.080;2023-03-17T11:58:45;5.30;;;2.00;;
75073;SDS011;63652;51.526;5.080;2023-03-17T12:01:16;6.82;;;2.35;;
75073;SDS011;63652;51.526;5.080;2023-03-17T12:06:28;4.30;;;2.17;;
75073;SDS011;63652;51.526;5.080;2023-03-17T12:11:28;4.32;;;2.53;;
75073;SDS011;63652;51.526;5.080;2023-03-17T12:13:58;7.63;;;2.17;;
75073;SDS011;63652;51.526;5.080;2023-03-17T12:21:36;9.20;;;2.33;;
75073;SDS011;63652;51.526;5.080;2023-03-17T12:27:02;3.72;;;1.98;;
75073;SDS011;63652;51.526;5.080;2023-03-17T12:34:56;5.15;;;2.53;;
75073;SDS011;63652;51.526;5.080;2023-03-17T12:37:24;7.03;;;2.63;;
75073;SDS011;63652;51.526;5.080;2023-03-17T12:43:33;5.35;;;2.00;;
75073;SDS011;63652;51.526;5.080;2023-03-17T12:52:08;6.35;;;2.55;;
75073;SDS011;63652;51.526;5.080;2023-03-17T12:54:43;5.35;;;2.60;;
75073;SDS011;63652;51.526;5.080;2023-03-17T12:57:20;6.40;;;2.63;;
75073;SDS011;63652;51.526;5.080;2023-03-17T12:59:48;5.72;;;2.42;;
75073;SDS011;63652;51.526;5.080;2023-03-17T13:02:27;4.97;;;1.83;;
75073;SDS011;63652;51.526;5.080;2023-03-17T13:04:57;7.10;;;2.55;;
75073;SDS011;63652;51.526;5.080;2023-03-17T13:13:12;5.13;;;1.85;;
75073;SDS011;63652;51.526;5.080;2023-03-17T13:20:37;6.53;;;2.30;;
75073;SDS011;63652;51.526;5.080;2023-03-17T13:25:46;5.78;;;1.88;;
75073;SDS011;63652;51.526;5.080;2023-03-17T13:28:25;8.75;;;2.13;;
75073;SDS011;63652;51.526;5.080;2023-03-17T13:31:08;4.57;;;1.83;;
75073;SDS011;63652;51.526;5.080;2023-03-17T13:33:53;3.75;;;1.73;;
75073;SDS011;63652;51.526;5.080;2023-03-17T13:36:37;5.82;;;1.92;;
75073;SDS011;63652;51.526;5.080;2023-03-17T13:48:20;4.78;;;2.33;;
75073;SDS011;63652;51.526;5.080;2023-03-17T13:53:33;6.38;;;2.15;;
75073;SDS011;63652;51.526;5.080;2023-03-17T13:56:07;6.55;;;2.05;;
75073;SDS011;63652;51.526;5.080;2023-03-17T13:58:47;6.50;;;2.45;;
75073;SDS011;63652;51.526;5.080;2023-03-17T14:01:21;4.57;;;2.65;;
75073;SDS011;63652;51.526;5.080;2023-03-17T14:03:48;7.15;;;3.10;;
75073;SDS011;63652;51.526;5.080;2023-03-17T14:06:15;5.07;;;1.95;;
75073;SDS011;63652;51.526;5.080;2023-03-17T14:08:56;5.90;;;2.10;;
75073;SDS011;63652;51.526;5.080;2023-03-17T14:11:32;6.53;;;2.20;;
75073;SDS011;63652;51.526;5.080;2023-03-17T14:16:51;8.13;;;2.85;;
75073;SDS011;63652;51.526;5.080;2023-03-17T14:19:23;6.35;;;2.65;;
75073;SDS011;63652;51.526;5.080;2023-03-17T14:21:53;5.53;;;2.20;;
75073;SDS011;63652;51.526;5.080;2023-03-17T14:24:21;4.35;;;2.30;;
75073;SDS011;63652;51.526;5.080;2023-03-17T14:26:48;7.15;;;3.00;;
75073;SDS011;63652;51.526;5.080;2023-03-17T14:29:15;4.88;;;2.47;;
75073;SDS011;63652;51.526;5.080;2023-03-17T14:31:45;6.15;;;2.17;;
75073;SDS011;63652;51.526;5.080;2023-03-17T14:34:12;6.07;;;2.17;;
75073;SDS011;63652;51.526;5.080;2023-03-17T14:36:38;5.75;;;2.75;;
75073;SDS011;63652;51.526;5.080;2023-03-17T14:39:04;7.88;;;3.08;;
75073;SDS011;63652;51.526;5.080;2023-03-17T14:41:32;5.18;;;2.50;;
75073;SDS011;63652;51.526;5.080;2023-03-17T14:43:58;4.97;;;2.30;;
75073;SDS011;63652;51.526;5.080;2023-03-17T14:46:25;5.32;;;2.50;;
75073;SDS011;63652;51.526;5.080;2023-03-17T14:48:59;6.30;;;2.35;;
75073;SDS011;63652;51.526;5.080;2023-03-17T14:51:31;8.10;;;1.55;;
75073;SDS011;63652;51.526;5.080;2023-03-17T14:54:00;8.75;;;1.83;;
75073;SDS011;63652;51.526;5.080;2023-03-17T14:56:32;5.25;;;1.80;;
75073;SDS011;63652;51.526;5.080;2023-03-17T14:59:15;5.82;;;2.35;;
75073;SDS011;63652;51.526;5.080;2023-03-17T15:01:54;4.97;;;1.63;;
75073;SDS011;63652;51.526;5.080;2023-03-17T15:04:31;6.45;;;1.83;;
75073;SDS011;63652;51.526;5.080;2023-03-17T15:06:58;6.22;;;2.08;;
75073;SDS011;63652;51.526;5.080;2023-03-17T15:12:16;3.75;;;1.60;;
75073;SDS011;63652;51.526;5.080;2023-03-17T15:14:43;4.78;;;1.92;;
75073;SDS011;63652;51.526;5.080;2023-03-17T15:17:14;4.72;;;2.70;;
75073;SDS011;63652;51.526;5.080;2023-03-17T15:19:43;5.47;;;2.42;;
75073;SDS011;63652;51.526;5.080;2023-03-17T15:27:29;5.88;;;2.08;;
75073;SDS011;63652;51.526;5.080;2023-03-17T15:29:56;6.28;;;1.75;;
75073;SDS011;63652;51.526;5.080;2023-03-17T15:32:25;6.80;;;2.08;;
75073;SDS011;63652;51.526;5.080;2023-03-17T15:34:51;4.63;;;2.13;;
75073;SDS011;63652;51.526;5.080;2023-03-17T15:37:26;5.03;;;2.22;;
75073;SDS011;63652;51.526;5.080;2023-03-17T15:39:54;5.22;;;2.20;;
75073;SDS011;63652;51.526;5.080;2023-03-17T15:42:24;7.13;;;2.38;;
75073;SDS011;63652;51.526;5.080;2023-03-17T15:44:52;4.53;;;2.15;;
75073;SDS011;63652;51.526;5.080;2023-03-17T15:47:19;5.45;;;1.95;;
75073;SDS011;63652;51.526;5.080;2023-03-17T15:49:46;4.47;;;1.80;;
75073;SDS011;63652;51.526;5.080;2023-03-17T15:52:16;4.72;;;2.25;;
75073;SDS011;63652;51.526;5.080;2023-03-17T15:54:51;5.65;;;1.88;;
75073;SDS011;63652;51.526;5.080;2023-03-17T15:57:20;5.95;;;2.30;;
75073;SDS011;63652;51.526;5.080;2023-03-17T15:59:46;6.53;;;2.70;;
75073;SDS011;63652;51.526;5.080;2023-03-17T16:02:27;6.93;;;2.53;;
75073;SDS011;63652;51.526;5.080;2023-03-17T16:04:55;6.13;;;1.70;;
75073;SDS011;63652;51.526;5.080;2023-03-17T16:07:22;3.47;;;1.90;;
75073;SDS011;63652;51.526;5.080;2023-03-17T16:09:48;5.65;;;1.88;;
75073;SDS011;63652;51.526;5.080;2023-03-17T16:12:14;4.68;;;1.83;;
75073;SDS011;63652;51.526;5.080;2023-03-17T16:14:39;4.90;;;1.13;;
75073;SDS011;63652;51.526;5.080;2023-03-17T16:17:27;5.35;;;1.35;;
75073;SDS011;63652;51.526;5.080;2023-03-17T16:19:54;7.93;;;1.30;;
75073;SDS011;63652;51.526;5.080;2023-03-17T16:22:39;4.93;;;1.13;;
75073;SDS011;63652;51.526;5.080;2023-03-17T16:25:15;4.10;;;1.42;;
75073;SDS011;63652;51.526;5.080;2023-03-17T16:27:44;4.22;;;0.90;;
75073;SDS011;63652;51.526;5.080;2023-03-17T16:30:14;3.17;;;1.27;;
75073;SDS011;63652;51.526;5.080;2023-03-17T16:32:41;1.88;;;0.85;;
75073;SDS011;63652;51.526;5.080;2023-03-17T16:35:16;2.30;;;0.93;;
75073;SDS011;63652;51.526;5.080;2023-03-17T16:37:43;3.97;;;1.35;;
75073;SDS011;63652;51.526;5.080;2023-03-17T16:40:16;4.72;;;1.25;;